Time;durP1;ratioP1;P1;durP2;ratioP2;P2;SDS_P1;SDS_P2;PMS_P1;PMS_P2;Temp;Humidity;BMP_temperature;BMP_pressure;BME280_temperature;BME280_humidity;BME280_pressure;Samples;Min_cycle;Max_cycle;Signal;HPM_P1;HPM_P2
2022/05/07 00:01:26;;;;;;;4.00;1.92;;;;;;;15.84;53.22;102411.50;5046741;28;20107;-64
2022/05/07 00:03:51;;;;;;;3.85;1.85;;;;;;;15.79;53.04;102403.66;5048058;28;20028;-63
2022/05/07 00:06:17;;;;;;;6.28;2.10;;;;;;;15.78;53.25;102397.47;5046110;28;20029;-62
2022/05/07 00:08:42;;;;;;;4.90;2.35;;;;;;;15.76;53.54;102406.41;5028906;28;20028;-62
2022/05/07 00:11:07;;;;;;;6.72;2.40;;;;;;;15.73;53.62;102398.53;5031183;28;20114;-63
2022/05/07 00:13:33;;;;;;;5.07;2.42;;;;;;;15.75;53.82;102394.06;5046946;28;20132;-63
2022/05/07 00:18:42;;;;;;;5.85;1.83;;;;;;;15.74;54.17;102397.63;5046679;28;20103;-63
2022/05/07 00:21:08;;;;;;;5.43;2.70;;;;;;;15.69;54.18;102396.91;5045132;28;20033;-62
2022/05/07 00:23:33;;;;;;;6.00;2.50;;;;;;;15.66;54.29;102393.41;5047897;28;20392;-64
2022/05/07 00:25:59;;;;;;;4.57;2.30;;;;;;;15.59;55.01;102391.00;5046228;28;20036;-64
2022/05/07 00:28:24;;;;;;;6.88;2.78;;;;;;;15.56;55.07;102385.78;5048198;28;20371;-62
2022/05/07 00:30:50;;;;;;;3.25;2.10;;;;;;;15.59;55.06;102388.34;5046256;28;20057;-64
2022/05/07 00:33:15;;;;;;;6.80;2.60;;;;;;;15.62;55.37;102381.13;5046147;28;20079;-63
2022/05/07 00:35:40;;;;;;;6.20;2.60;;;;;;;15.49;56.04;102378.00;5045782;28;20442;-64
2022/05/07 00:38:06;;;;;;;6.25;2.60;;;;;;;15.40;56.34;102387.13;5046120;28;20013;-63
2022/05/07 00:40:31;;;;;;;6.55;2.40;;;;;;;15.40;56.56;102371.19;5046261;28;20464;-62
2022/05/07 00:42:56;;;;;;;11.15;2.72;;;;;;;15.41;56.35;102367.59;5046648;28;20489;-63
2022/05/07 00:45:22;;;;;;;5.40;2.60;;;;;;;15.43;56.93;102369.31;5045650;28;20021;-64
2022/05/07 00:47:47;;;;;;;6.57;3.10;;;;;;;15.29;57.37;102368.81;5043038;28;20483;-63
2022/05/07 00:52:56;;;;;;;4.97;2.65;;;;;;;15.27;57.59;102375.97;5028093;28;20103;-62
2022/05/07 00:55:23;;;;;;;5.28;2.80;;;;;;;15.24;58.24;102367.22;5025883;28;20018;-62
2022/05/07 00:57:49;;;;;;;7.65;3.00;;;;;;;15.21;58.39;102370.84;5042967;28;20025;-62
2022/05/07 01:00:14;;;;;;;7.75;3.60;;;;;;;15.26;58.44;102376.03;5045808;28;20074;-62
2022/05/07 01:02:41;;;;;;;8.18;3.75;;;;;;;15.16;59.02;102373.63;5048730;22;20049;-64
2022/05/07 01:05:08;;;;;;;9.95;3.38;;;;;;;15.13;59.46;102379.03;5066191;28;20020;-61
2022/05/07 01:07:36;;;;;;;7.68;2.85;;;;;;;15.18;59.12;102378.03;5063778;28;20081;-63
2022/05/07 01:10:05;;;;;;;11.25;3.58;;;;;;;15.15;59.71;102381.66;5066981;28;20466;-64
2022/05/07 01:12:30;;;;;;;9.50;3.95;;;;;;;15.13;60.03;102379.03;5066824;28;20033;-63
2022/05/07 01:14:57;;;;;;;7.57;3.28;;;;;;;15.05;60.35;102377.50;5067198;28;20035;-63
2022/05/07 01:17:23;;;;;;;8.93;3.80;;;;;;;14.99;60.86;102370.59;5066356;28;20077;-63
2022/05/07 01:19:51;;;;;;;9.73;3.30;;;;;;;14.95;61.12;102375.09;5067141;28;20027;-62
2022/05/07 01:22:17;;;;;;;5.82;3.72;;;;;;;14.86;61.63;102373.59;5065434;28;20040;-63
2022/05/07 01:24:42;;;;;;;13.43;3.78;;;;;;;14.82;61.87;102374.59;5067087;28;20033;-63
2022/05/07 01:27:08;;;;;;;10.13;4.45;;;;;;;14.76;62.35;102364.97;5066136;28;20082;-64
2022/05/07 01:29:33;;;;;;;12.05;4.75;;;;;;;14.76;62.78;102369.41;5066605;28;20470;-64
2022/05/07 01:31:58;;;;;;;11.55;5.15;;;;;;;14.61;63.86;102365.38;5066606;28;20417;-63
2022/05/07 01:34:24;;;;;;;9.73;5.47;;;;;;;14.65;64.30;102362.63;5066502;28;20029;-64
2022/05/07 01:36:49;;;;;;;12.25;4.95;;;;;;;14.55;64.69;102363.78;5064895;28;20482;-62
2022/05/07 01:39:14;;;;;;;13.02;5.40;;;;;;;14.63;65.25;102363.56;5065577;28;20483;-62
2022/05/07 01:41:40;;;;;;;13.13;5.78;;;;;;;14.64;64.76;102360.00;5065428;28;20584;-63
2022/05/07 01:44:05;;;;;;;19.90;6.30;;;;;;;14.60;65.27;102363.66;5066483;28;20467;-64
2022/05/07 01:49:14;;;;;;;13.95;6.85;;;;;;;14.62;66.06;102360.03;5046283;28;20047;-62
2022/05/07 01:51:40;;;;;;;15.55;6.20;;;;;;;14.63;66.15;102367.06;5060131;28;20025;-62
2022/05/07 01:54:05;;;;;;;14.15;6.30;;;;;;;14.64;66.32;102358.22;5067079;28;20017;-63
2022/05/07 01:56:30;;;;;;;14.63;6.75;;;;;;;14.58;67.12;102362.81;5066348;28;20036;-62
2022/05/07 01:58:55;;;;;;;18.10;7.55;;;;;;;14.59;67.55;102356.59;5064822;28;20020;-62
2022/05/07 02:01:21;;;;;;;18.75;7.35;;;;;;;14.56;67.51;102351.34;5065890;28;20028;-62
2022/05/07 02:03:46;;;;;;;19.17;7.22;;;;;;;14.46;68.28;102351.63;5064320;28;20472;-62
2022/05/07 02:06:12;;;;;;;17.70;7.57;;;;;;;14.52;68.19;102347.94;5065456;28;20035;-63
2022/05/07 02:08:37;;;;;;;17.23;7.78;;;;;;;14.49;68.44;102355.97;5067703;28;20039;-62
2022/05/07 02:11:03;;;;;;;23.38;8.73;;;;;;;14.43;68.90;102351.69;5069895;28;20024;-63
2022/05/07 02:13:28;;;;;;;22.02;8.48;;;;;;;14.45;68.84;102351.66;5069952;28;20421;-62
2022/05/07 02:15:54;;;;;;;20.17;7.60;;;;;;;14.48;68.75;102354.22;5069956;28;20300;-62
2022/05/07 02:18:19;;;;;;;17.42;8.60;;;;;;;14.48;69.34;102346.28;5069030;28;20044;-62
2022/05/07 02:20:44;;;;;;;17.83;7.85;;;;;;;14.41;69.13;102342.91;5069103;28;20020;-62
2022/05/07 02:23:09;;;;;;;22.83;8.63;;;;;;;14.43;70.34;102346.41;5068763;28;20033;-63
2022/05/07 02:25:35;;;;;;;18.95;8.50;;;;;;;14.47;69.59;102344.50;5070081;28;20020;-62
2022/05/07 02:28:00;;;;;;;17.70;8.90;;;;;;;14.49;69.96;102342.72;5069298;28;20452;-62
2022/05/07 02:30:26;;;;;;;18.80;8.10;;;;;;;14.44;69.68;102342.81;5069890;28;20386;-62
2022/05/07 02:32:51;;;;;;;18.63;8.80;;;;;;;14.43;69.97;102337.56;5068224;28;20029;-62
2022/05/07 02:35:16;;;;;;;20.63;9.10;;;;;;;14.40;70.57;102342.06;5066758;28;20115;-63
2022/05/07 02:37:42;;;;;;;19.35;9.23;;;;;;;14.42;70.73;102346.44;5069669;28;20429;-62
2022/05/07 02:40:08;;;;;;;19.02;9.43;;;;;;;14.39;71.17;102350.91;5068723;28;20028;-62
2022/05/07 02:42:33;;;;;;;24.95;10.43;;;;;;;14.41;71.10;102348.19;5069260;28;20589;-64
2022/05/07 02:44:59;;;;;;;30.00;10.43;;;;;;;14.36;71.45;102352.78;5068955;28;20052;-63
2022/05/07 02:47:24;;;;;;;25.40;10.50;;;;;;;14.39;71.34;102352.69;5068773;28;20470;-63
2022/05/07 02:49:50;;;;;;;23.35;9.88;;;;;;;14.40;71.46;102359.72;5068901;28;20035;-63
2022/05/07 02:52:15;;;;;;;22.45;10.60;;;;;;;14.44;71.51;102352.56;5068251;28;20028;-63
2022/05/07 02:54:40;;;;;;;25.02;10.05;;;;;;;14.40;71.12;102355.31;5068961;28;20032;-63
2022/05/07 02:57:06;;;;;;;23.65;10.57;;;;;;;14.25;72.39;102350.38;5068033;28;20024;-62
2022/05/07 02:59:32;;;;;;;18.70;9.43;;;;;;;14.31;72.19;102358.19;5068557;28;20047;-62
2022/05/07 03:01:57;;;;;;;20.58;9.63;;;;;;;14.30;72.28;102356.44;5069825;28;20032;-63
2022/05/07 03:04:22;;;;;;;21.50;10.80;;;;;;;14.28;72.36;102360.91;5067853;28;20049;-62
2022/05/07 03:06:48;;;;;;;23.42;9.40;;;;;;;14.23;72.70;102354.84;5068781;28;20024;-62
2022/05/07 03:09:14;;;;;;;26.50;11.10;;;;;;;14.20;72.60;102370.81;5068070;28;20064;-64
2022/05/07 03:11:39;;;;;;;20.15;9.85;;;;;;;14.29;72.60;102360.00;5069344;28;20107;-63
2022/05/07 03:14:06;;;;;;;26.58;11.45;;;;;;;14.24;72.68;102360.09;5067921;28;22195;-64
2022/05/07 03:16:32;;;;;;;28.77;11.95;;;;;;;14.28;72.88;102359.16;5069543;28;20103;-64
2022/05/07 03:18:58;;;;;;;29.15;11.88;;;;;;;14.31;73.05;102352.88;5068023;28;20108;-62
2022/05/07 03:21:23;;;;;;;27.35;11.75;;;;;;;14.28;72.93;102352.97;5068020;28;20040;-63
2022/05/07 03:23:48;;;;;;;24.73;11.52;;;;;;;14.26;73.48;102355.66;5068583;28;20024;-63
2022/05/07 03:26:14;;;;;;;33.88;11.73;;;;;;;14.24;73.19;102361.91;5067853;28;20021;-64
2022/05/07 03:28:40;;;;;;;28.02;11.60;;;;;;;14.16;73.73;102359.44;5068238;28;20025;-64
2022/05/07 03:31:05;;;;;;;24.42;11.63;;;;;;;14.18;73.97;102362.06;5068093;28;20068;-65
2022/05/07 03:33:31;;;;;;;35.78;13.60;;;;;;;14.09;74.63;102366.66;5068708;28;20104;-63
2022/05/07 03:35:57;;;;;;;28.10;11.60;;;;;;;14.09;74.47;102364.00;5067279;28;20070;-63
2022/05/07 03:38:22;;;;;;;26.20;11.95;;;;;;;14.12;74.31;102363.09;5068500;28;20028;-64
2022/05/07 03:40:48;;;;;;;36.13;13.18;;;;;;;14.17;74.45;102362.97;5067590;28;20055;-62
2022/05/07 03:43:13;;;;;;;31.95;13.80;;;;;;;14.13;74.60;102364.81;5068252;28;20475;-62
2022/05/07 03:45:39;;;;;;;36.60;13.88;;;;;;;14.05;74.84;102369.44;5068056;28;20064;-62
2022/05/07 03:48:04;;;;;;;30.48;13.02;;;;;;;14.10;74.56;102367.53;5068111;28;20016;-63
2022/05/07 03:50:30;;;;;;;32.70;11.65;;;;;;;14.09;74.81;102366.66;5065804;28;20037;-63
2022/05/07 03:55:41;;;;;;;25.25;12.32;;;;;;;13.98;75.21;102366.06;5067808;28;20466;-63
2022/05/07 03:58:16;;;;;;;27.65;11.98;;;;;;;13.98;75.10;102368.72;5068406;28;20101;-64
2022/05/07 04:00:42;;;;;;;34.00;13.93;;;;;;;14.01;75.14;102368.63;5067244;28;20040;-64
2022/05/07 04:03:08;;;;;;;30.77;13.68;;;;;;;13.95;75.28;102374.06;5067675;28;20171;-64
2022/05/07 04:05:33;;;;;;;30.98;12.82;;;;;;;13.98;75.04;102371.34;5066796;28;20386;-64
2022/05/07 04:07:59;;;;;;;30.52;13.73;;;;;;;13.89;75.60;102372.44;5067910;28;20009;-63
2022/05/07 04:10:24;;;;;;;28.13;14.70;;;;;;;13.93;75.73;102371.47;5066749;28;20040;-64
2022/05/07 04:12:51;;;;;;;29.63;13.27;;;;;;;13.92;75.59;102371.50;5067697;28;20113;-64
2022/05/07 04:15:17;;;;;;;33.67;13.55;;;;;;;13.93;75.69;102373.25;5062308;28;20040;-63
2022/05/07 04:17:42;;;;;;;29.45;13.88;;;;;;;13.90;75.82;102379.47;5068290;28;20046;-62
2022/05/07 04:20:09;;;;;;;35.90;14.55;;;;;;;13.95;75.67;102382.03;5066215;28;20047;-62
2022/05/07 04:22:35;;;;;;;35.13;14.15;;;;;;;13.96;75.66;102394.34;5066513;28;20398;-64
2022/05/07 04:25:01;;;;;;;39.47;14.23;;;;;;;13.95;76.30;102397.94;5067331;28;20048;-65
2022/05/07 04:27:26;;;;;;;31.67;14.90;;;;;;;13.94;76.14;102397.03;5064019;28;20113;-63
2022/05/07 04:29:52;;;;;;;28.40;13.15;;;;;;;14.05;75.93;102394.16;5067974;28;20052;-64
2022/05/07 04:32:17;;;;;;;27.55;13.82;;;;;;;14.08;75.57;102394.09;5067175;28;20127;-65
2022/05/07 04:34:42;;;;;;;32.13;14.05;;;;;;;14.08;75.73;102395.84;5065764;28;20025;-64
2022/05/07 04:37:07;;;;;;;31.67;13.75;;;;;;;14.09;75.94;102390.50;5067791;28;20166;-63
2022/05/07 04:39:34;;;;;;;37.08;15.10;;;;;;;14.07;75.89;102392.34;5068259;28;20495;-64
2022/05/07 04:42:00;;;;;;;35.40;14.38;;;;;;;14.11;75.76;102398.44;5067871;28;20391;-65
2022/05/07 04:44:26;;;;;;;32.15;14.32;;;;;;;14.08;75.73;102394.09;5067671;28;20445;-63
2022/05/07 04:46:51;;;;;;;34.10;14.50;;;;;;;14.16;75.85;102391.25;5067970;28;20029;-63
2022/05/07 04:49:19;;;;;;;31.88;13.82;;;;;;;14.13;75.55;102392.22;5067151;28;20411;-62
2022/05/07 04:51:45;;;;;;;26.58;14.32;;;;;;;14.13;75.87;102391.31;5066117;28;20024;-65
2022/05/07 04:54:10;;;;;;;34.88;13.52;;;;;;;14.16;75.71;102396.56;5067675;28;20023;-62
2022/05/07 04:56:36;;;;;;;35.20;15.40;;;;;;;14.11;76.05;102395.78;5067232;28;20033;-64
2022/05/07 04:59:01;;;;;;;25.55;13.43;;;;;;;14.23;75.83;102397.25;5067577;28;20023;-62
2022/05/07 05:01:27;;;;;;;34.78;15.40;;;;;;;14.27;75.58;102401.59;5068224;28;20035;-64
2022/05/07 05:03:52;;;;;;;36.78;14.20;;;;;;;14.32;75.39;102402.34;5066911;28;20041;-63
2022/05/07 05:06:18;;;;;;;28.77;14.05;;;;;;;14.42;75.22;102396.81;5066937;28;20035;-64
2022/05/07 05:08:43;;;;;;;37.13;14.48;;;;;;;14.43;75.18;102401.22;5067538;28;20032;-64
2022/05/07 05:11:08;;;;;;;35.45;14.80;;;;;;;14.45;75.18;102410.00;5066768;28;20111;-63
2022/05/07 05:13:33;;;;;;;34.28;16.33;;;;;;;14.35;75.47;102404.91;5066897;28;20119;-64
2022/05/07 05:15:59;;;;;;;31.70;13.63;;;;;;;14.41;75.25;102406.53;5067847;28;20024;-64
2022/05/07 05:18:24;;;;;;;38.53;15.65;;;;;;;14.55;74.83;102411.50;5065423;28;20028;-63
2022/05/07 05:20:50;;;;;;;32.15;13.30;;;;;;;14.57;75.20;102420.28;5065638;28;20394;-64
2022/05/07 05:23:15;;;;;;;31.67;12.95;;;;;;;14.55;74.96;102416.81;5065970;28;20066;-64
2022/05/07 05:25:43;;;;;;;36.53;16.15;;;;;;;14.55;75.31;102407.97;5066397;28;20550;-65
2022/05/07 05:28:11;;;;;;;33.78;15.35;;;;;;;14.64;74.87;102419.25;5063776;28;20028;-64
2022/05/07 05:30:37;;;;;;;31.02;15.95;;;;;;;14.68;75.12;102413.81;5065865;28;20048;-64
2022/05/07 05:33:02;;;;;;;40.05;17.00;;;;;;;14.64;75.33;102418.34;5066238;28;20812;-65
2022/05/07 05:35:27;;;;;;;38.53;15.25;;;;;;;14.70;75.29;102430.59;5066392;28;20823;-65
2022/05/07 05:37:54;;;;;;;34.50;13.88;;;;;;;14.89;74.83;102438.97;5060847;28;20112;-64
2022/05/07 05:40:20;;;;;;;28.77;14.00;;;;;;;15.01;74.25;102436.00;5056842;28;20067;-64
2022/05/07 05:42:45;;;;;;;30.02;15.55;;;;;;;15.12;73.57;102437.47;5054407;28;20463;-64
2022/05/07 05:45:11;;;;;;;29.15;13.68;;;;;;;15.25;73.48;102441.53;5061559;28;20103;-64
2022/05/07 05:47:36;;;;;;;37.45;15.68;;;;;;;15.26;73.25;102437.97;5058961;28;20367;-63
2022/05/07 05:50:01;;;;;;;35.75;15.45;;;;;;;15.35;72.96;102442.13;5057875;28;20028;-63
2022/05/07 05:52:27;;;;;;;38.58;14.75;;;;;;;15.48;72.71;102434.69;5061875;28;20109;-64
2022/05/07 05:54:53;;;;;;;40.42;18.13;;;;;;;15.50;72.60;102439.97;5059554;28;20029;-63
2022/05/07 05:57:18;;;;;;;36.13;16.42;;;;;;;15.59;72.21;102430.84;5060467;28;20510;-63
2022/05/07 05:59:43;;;;;;;35.05;15.85;;;;;;;15.69;71.56;102434.97;5061574;28;20025;-64
2022/05/07 06:02:09;;;;;;;36.65;17.95;;;;;;;15.66;71.65;102440.38;5069734;28;20051;-63
2022/05/07 06:04:34;;;;;;;38.15;17.02;;;;;;;15.66;71.59;102433.25;5069714;28;20041;-64
2022/05/07 06:07:00;;;;;;;32.08;15.77;;;;;;;15.77;71.19;102426.75;5069774;28;20037;-62
2022/05/07 06:09:28;;;;;;;31.77;16.08;;;;;;;15.86;70.92;102433.59;5070743;28;20078;-63
2022/05/07 06:11:54;;;;;;;37.35;15.98;;;;;;;15.82;71.04;102432.81;5063007;28;20029;-65
2022/05/07 06:14:20;;;;;;;37.63;17.48;;;;;;;15.91;70.78;102429.88;5060608;28;20040;-65
2022/05/07 06:16:45;;;;;;;35.17;16.85;;;;;;;15.88;70.68;102431.75;5059551;28;21297;-62
2022/05/07 06:19:10;;;;;;;38.63;18.02;;;;;;;15.95;70.13;102424.47;5060888;28;20387;-64
2022/05/07 06:21:36;;;;;;;33.25;16.30;;;;;;;16.02;70.11;102428.69;5063249;28;20056;-63
2022/05/07 06:29:29;;;;;;;34.78;16.27;;;;;;;16.40;69.38;102437.22;5069227;28;20086;-63
2022/05/07 06:31:55;;;;;;;36.97;17.25;;;;;;;16.51;68.63;102438.63;5070426;28;20201;-63
2022/05/07 06:34:23;;;;;;;33.00;17.17;;;;;;;16.48;68.37;102436.97;5068198;28;20776;-64
2022/05/07 06:36:48;;;;;;;33.80;17.70;;;;;;;16.50;68.51;102442.22;5067745;28;20032;-63
2022/05/07 06:39:15;;;;;;;33.85;17.45;;;;;;;16.56;68.73;102442.03;5068264;28;20028;-63
2022/05/07 06:41:41;;;;;;;34.15;17.17;;;;;;;16.62;68.07;102441.81;5056774;28;20031;-62
2022/05/07 06:44:06;;;;;;;37.55;17.35;;;;;;;16.61;68.17;102444.50;5046925;28;20024;-65
2022/05/07 06:46:32;;;;;;;30.20;16.00;;;;;;;16.64;68.13;102445.28;5049914;28;20151;-62
2022/05/07 06:48:57;;;;;;;34.53;17.92;;;;;;;16.62;68.44;102447.13;5049573;28;20096;-63
2022/05/07 06:51:24;;;;;;;29.83;15.73;;;;;;;16.66;68.30;102448.78;5047561;28;20039;-63
2022/05/07 06:53:49;;;;;;;36.63;16.92;;;;;;;16.77;68.00;102444.88;5048632;28;20024;-63
2022/05/07 06:56:15;;;;;;;33.80;16.52;;;;;;;16.90;67.63;102443.53;5046318;28;20029;-62
2022/05/07 06:58:41;;;;;;;24.88;14.48;;;;;;;17.01;67.36;102448.44;5047481;28;20040;-64
2022/05/07 07:01:07;;;;;;;26.48;14.77;;;;;;;17.17;67.10;102454.16;5047975;28;20032;-63
2022/05/07 07:03:33;;;;;;;22.20;13.18;;;;;;;17.29;66.46;102458.16;5048362;28;20040;-63
2022/05/07 07:05:59;;;;;;;23.10;12.65;;;;;;;17.49;66.19;102459.19;5048271;28;20111;-62
2022/05/07 07:08:24;;;;;;;23.17;12.88;;;;;;;17.69;65.50;102454.91;5049139;28;20036;-61
2022/05/07 07:10:50;;;;;;;22.70;12.10;;;;;;;17.94;64.53;102454.81;5049675;28;20020;-61
2022/05/07 07:13:18;;;;;;;22.17;11.95;;;;;;;18.27;64.09;102458.88;5048015;28;20111;-63
2022/05/07 07:15:44;;;;;;;26.65;13.02;;;;;;;18.43;62.48;102461.78;5048609;28;20024;-62
2022/05/07 07:18:10;;;;;;;20.00;10.15;;;;;;;18.66;62.99;102457.28;5040025;28;20673;-61
2022/05/07 07:20:41;;;;;;;24.48;12.32;;;;;;;18.97;61.88;102460.44;5048327;28;20137;-60
2022/05/07 07:23:06;;;;;;;24.25;11.88;;;;;;;18.96;61.97;102460.50;5048399;28;20025;-60
2022/05/07 07:25:32;;;;;;;18.17;9.00;;;;;;;18.99;61.02;102457.72;5048776;28;20525;-64
2022/05/07 07:27:57;;;;;;;17.42;9.10;;;;;;;18.86;61.23;102460.91;5048478;28;20333;-60
2022/05/07 07:30:22;;;;;;;17.80;9.85;;;;;;;18.91;62.13;102458.88;5048357;28;20024;-62
2022/05/07 07:32:48;;;;;;;15.60;8.52;;;;;;;18.83;62.14;102458.38;5047384;28;20363;-60
2022/05/07 07:35:14;;;;;;;14.63;8.63;;;;;;;18.79;62.20;102456.78;5047822;28;20028;-60
2022/05/07 07:37:39;;;;;;;18.25;8.55;;;;;;;18.80;61.74;102458.50;5047865;28;20375;-60
2022/05/07 07:40:05;;;;;;;18.15;8.23;;;;;;;18.67;62.19;102455.50;5048668;28;20082;-62
2022/05/07 07:42:31;;;;;;;18.42;10.00;;;;;;;18.42;62.95;102462.72;5047801;28;20793;-60
2022/05/07 07:50:27;;;;;;;14.98;10.40;;;;;;;18.56;62.18;102461.28;5047343;28;20513;-62
2022/05/07 07:52:53;;;;;;;23.42;12.20;;;;;;;18.54;62.42;102468.47;5046843;28;20828;-61
2022/05/07 07:55:19;;;;;;;23.88;12.05;;;;;;;18.59;61.83;102469.16;5047983;28;20478;-62
2022/05/07 07:57:44;;;;;;;21.23;11.20;;;;;;;18.53;62.29;102472.09;5044177;28;20539;-62
2022/05/07 08:00:11;;;;;;;20.88;11.80;;;;;;;18.60;62.49;102467.38;5043578;28;20364;-60
2022/05/07 08:02:46;;;;;;;24.23;12.75;;;;;;;18.66;62.32;102462.63;5046233;28;20053;-60
2022/05/07 08:05:11;;;;;;;22.23;12.25;;;;;;;18.76;62.60;102465.78;5046087;28;20056;-61
2022/05/07 08:13:06;;;;;;;22.17;12.70;;;;;;;18.71;62.15;102474.91;5035881;28;20051;-64
2022/05/07 08:15:31;;;;;;;21.77;12.07;;;;;;;18.60;61.63;102470.88;5046745;28;20425;-65
2022/05/07 08:17:56;;;;;;;27.38;13.43;;;;;;;18.65;62.39;102482.25;5045661;28;20102;-65
2022/05/07 08:20:22;;;;;;;20.85;12.48;;;;;;;18.73;62.22;102473.06;5046018;28;20498;-64
2022/05/07 08:22:47;;;;;;;22.35;11.98;;;;;;;18.72;61.90;102471.31;5046496;28;20024;-63
2022/05/07 08:25:12;;;;;;;23.75;11.95;;;;;;;18.81;61.79;102474.47;5047248;28;20021;-64
2022/05/07 08:27:38;;;;;;;26.20;13.57;;;;;;;18.79;62.88;102475.47;5047369;28;20501;-63
2022/05/07 08:30:04;;;;;;;20.77;11.38;;;;;;;19.02;62.31;102484.28;5044752;28;20470;-64
2022/05/07 08:32:29;;;;;;;19.90;10.60;;;;;;;19.02;60.87;102478.94;5035673;28;20709;-64
2022/05/07 08:34:55;;;;;;;25.10;12.18;;;;;;;18.96;61.05;102479.22;5034722;28;20067;-64
2022/05/07 08:37:20;;;;;;;17.13;10.95;;;;;;;18.99;60.28;102479.09;5038394;28;20024;-63
2022/05/07 08:39:45;;;;;;;22.20;11.32;;;;;;;19.02;60.66;102485.13;5044521;28;20029;-66
2022/05/07 08:42:11;;;;;;;20.02;11.18;;;;;;;19.16;60.74;102481.91;5032602;28;20047;-61
2022/05/07 08:44:36;;;;;;;17.20;9.73;;;;;;;19.17;59.64;102477.41;5029131;28;20031;-63
2022/05/07 08:47:02;;;;;;;19.42;11.65;;;;;;;19.22;60.61;102482.56;5046748;28;20025;-66
2022/05/07 08:49:28;;;;;;;23.20;11.23;;;;;;;19.29;60.47;102481.34;5045512;28;20506;-66
2022/05/07 08:51:55;;;;;;;21.77;11.27;;;;;;;19.16;60.34;102487.25;5045052;28;20459;-64
2022/05/07 08:54:20;;;;;;;21.17;12.32;;;;;;;19.04;60.85;102482.41;5045817;28;20082;-66
2022/05/07 08:56:46;;;;;;;19.65;11.15;;;;;;;19.22;60.97;102487.91;5044647;28;20029;-65
2022/05/07 08:59:11;;;;;;;18.42;11.25;;;;;;;19.23;60.72;102486.97;5044905;28;20021;-65
2022/05/07 09:01:36;;;;;;;17.45;11.63;;;;;;;19.36;59.80;102490.84;5044116;28;20033;-65
2022/05/07 09:04:09;;;;;;;19.98;10.77;;;;;;;19.49;59.35;102498.28;5043594;28;20044;-65
2022/05/07 09:06:35;;;;;;;21.10;12.25;;;;;;;18.96;61.10;102490.75;5046504;28;20044;-63
2022/05/07 09:09:04;;;;;;;17.98;10.68;;;;;;;19.30;58.86;102497.31;5046492;28;20016;-63
2022/05/07 09:11:38;;;;;;;13.57;8.95;;;;;;;19.31;58.63;102496.38;5044903;28;20035;-64
2022/05/07 09:14:06;;;;;;;14.13;8.95;;;;;;;19.35;57.31;102498.94;5045485;28;20028;-63
2022/05/07 09:16:42;;;;;;;14.13;9.18;;;;;;;19.50;57.24;102498.22;5045875;28;20375;-62
2022/05/07 09:19:19;;;;;;;19.05;9.57;;;;;;;19.48;57.73;102494.75;5044504;28;20586;-63
2022/05/07 09:21:44;;;;;;;20.45;11.68;;;;;;;19.38;58.45;102498.78;5044787;28;20028;-64
2022/05/07 09:24:09;;;;;;;17.20;9.38;;;;;;;19.63;57.69;102493.16;5046566;28;20031;-63
2022/05/07 09:26:40;;;;;;;17.45;10.48;;;;;;;19.70;57.99;102497.31;5046425;28;20403;-64
2022/05/07 09:29:10;;;;;;;17.67;10.02;;;;;;;19.82;57.28;102495.88;5046160;28;20078;-63
2022/05/07 09:31:37;;;;;;;17.80;10.15;;;;;;;19.90;56.04;102491.97;5051017;28;20060;-63
2022/05/07 09:37:16;;;;;;;15.05;8.82;;;;;;;19.88;56.80;102500.06;5058188;28;20066;-65
2022/05/07 09:39:46;;;;;;;12.32;8.52;;;;;;;19.81;56.13;102496.78;5056867;28;20055;-64
2022/05/07 09:42:12;;;;;;;19.02;9.65;;;;;;;19.63;55.57;102501.19;5057473;28;20021;-65
2022/05/07 09:44:37;;;;;;;17.85;8.23;;;;;;;19.33;57.94;102504.34;5052236;28;20070;-63
2022/05/07 09:47:03;;;;;;;16.58;10.40;;;;;;;19.36;56.98;102506.00;5045779;28;20033;-65
2022/05/07 09:49:29;;;;;;;19.20;10.82;;;;;;;19.65;56.34;102510.00;5056748;28;20028;-67
2022/05/07 09:51:55;;;;;;;19.15;10.50;;;;;;;19.99;55.21;102504.03;5059837;28;20020;-64
2022/05/07 09:59:51;;;;;;;14.20;10.05;;;;;;;19.90;55.03;102503.50;5066453;28;20036;-62
2022/05/07 10:02:24;;;;;;;13.27;8.85;;;;;;;20.25;54.04;102499.22;5066084;28;20033;-64
2022/05/07 10:05:04;;;;;;;12.88;9.85;;;;;;;20.57;53.70;102507.50;5061698;28;20051;-65
2022/05/07 10:07:38;;;;;;;18.10;10.50;;;;;;;20.67;52.83;102508.75;5065731;28;20059;-64
2022/05/07 10:10:18;;;;;;;17.98;10.82;;;;;;;20.81;52.16;102518.78;5065818;28;20044;-64
2022/05/07 10:12:45;;;;;;;18.63;10.27;;;;;;;20.88;52.49;102511.28;5066256;28;20043;-65
2022/05/07 10:15:15;;;;;;;18.55;10.05;;;;;;;21.03;51.86;102515.03;5065426;28;20040;-65
2022/05/07 10:17:41;;;;;;;16.02;10.00;;;;;;;20.82;53.73;102512.47;5066178;28;20025;-65
2022/05/07 10:20:09;;;;;;;16.38;10.80;;;;;;;21.11;51.40;102517.31;5064585;28;20074;-65
2022/05/07 10:22:35;;;;;;;19.80;11.43;;;;;;;21.44;52.12;102513.78;5066183;28;20017;-67
2022/05/07 10:25:05;;;;;;;18.60;11.45;;;;;;;21.89;51.00;102513.19;5066648;28;20019;-64
2022/05/07 10:27:51;;;;;;;21.60;11.20;;;;;;;22.43;49.19;102513.75;5066392;28;20110;-65
2022/05/07 10:30:17;;;;;;;16.15;11.32;;;;;;;22.68;48.22;102515.91;5064966;28;20040;-65
2022/05/07 10:33:03;;;;;;;15.80;9.23;;;;;;;22.91;47.06;102516.31;5069737;28;20032;-64
2022/05/07 10:35:42;;;;;;;12.82;7.75;;;;;;;22.81;45.99;102520.53;5068678;28;20078;-65
2022/05/07 10:38:08;;;;;;;15.80;9.90;;;;;;;22.40;48.09;102506.75;5069287;28;20444;-64
2022/05/07 10:40:33;;;;;;;16.88;11.77;;;;;;;22.25;48.13;102515.69;5069285;28;20017;-61
2022/05/07 10:42:59;;;;;;;20.30;13.25;;;;;;;21.78;50.31;102505.72;5069716;28;20024;-65
2022/05/07 10:45:25;;;;;;;23.88;11.48;;;;;;;21.91;50.09;102510.44;5067963;28;20039;-65
2022/05/07 10:47:54;;;;;;;20.73;11.02;;;;;;;21.99;49.74;102508.16;5067898;28;20573;-63
2022/05/07 10:50:21;;;;;;;18.85;11.88;;;;;;;21.95;50.52;102510.13;5067095;28;20467;-64
2022/05/07 10:52:54;;;;;;;21.90;12.57;;;;;;;21.74;50.94;102509.50;5066181;28;20115;-63
2022/05/07 10:55:24;;;;;;;20.42;12.65;;;;;;;21.79;50.72;102506.63;5063821;28;20029;-64
2022/05/07 10:57:51;;;;;;;18.00;11.27;;;;;;;21.35;51.89;102516.97;5069636;28;20027;-64
2022/05/07 11:00:20;;;;;;;22.63;13.90;;;;;;;21.28;52.40;102508.38;5067679;28;20028;-63
2022/05/07 11:02:48;;;;;;;21.10;12.88;;;;;;;21.60;51.78;102512.94;5067321;28;20027;-65
2022/05/07 11:05:14;;;;;;;26.02;13.88;;;;;;;21.69;51.79;102504.41;5068631;28;20025;-65
2022/05/07 11:07:40;;;;;;;25.38;13.90;;;;;;;21.84;52.45;102509.88;5068036;28;20402;-64
2022/05/07 11:10:07;;;;;;;25.63;14.82;;;;;;;22.05;51.38;102517.69;5068018;28;20112;-64
2022/05/07 11:12:32;;;;;;;22.90;14.95;;;;;;;22.03;51.92;102511.56;5068117;28;20387;-64
2022/05/07 11:14:58;;;;;;;25.77;14.68;;;;;;;22.14;51.76;102519.84;5069915;28;20012;-64
2022/05/07 11:17:32;;;;;;;24.67;14.82;;;;;;;22.13;50.96;102511.88;5067676;28;20032;-64
2022/05/07 11:19:57;;;;;;;24.20;13.23;;;;;;;22.12;51.32;102516.38;5068973;28;20047;-65
2022/05/07 11:22:30;;;;;;;27.67;15.50;;;;;;;21.80;52.79;102524.44;5066772;28;20024;-65
2022/05/07 11:24:57;;;;;;;23.92;14.85;;;;;;;21.87;51.49;102515.09;5068445;28;20032;-65
2022/05/07 11:27:25;;;;;;;24.92;14.20;;;;;;;21.65;51.22;102515.38;5067675;28;20479;-64
2022/05/07 11:29:52;;;;;;;27.65;15.23;;;;;;;21.49;52.80;102510.84;5066243;28;20036;-66
2022/05/07 11:32:18;;;;;;;24.60;15.57;;;;;;;21.65;52.21;102516.25;5050970;28;20075;-65
2022/05/07 11:34:43;;;;;;;25.50;15.65;;;;;;;21.58;52.71;102510.34;5066809;28;20488;-64
2022/05/07 11:37:16;;;;;;;23.10;14.25;;;;;;;21.81;51.72;102505.56;5068718;28;20060;-63
2022/05/07 11:40:00;;;;;;;26.23;16.15;;;;;;;21.26;54.38;102504.91;5067449;28;20864;-62
2022/05/07 11:42:26;;;;;;;22.85;14.35;;;;;;;21.67;51.80;102513.50;5067774;28;20016;-64
2022/05/07 11:47:49;;;;;;;19.77;12.50;;;;;;;21.86;50.62;102502.63;5069137;28;20137;-64